Map

Track Data

SID SEASON NUMBER BASIN SUBBASIN NAME ISO_TIME NATURE LAT LON WMO_WIND WMO_PRES WMO_AGENCY TRACK_TYPE DIST2LAND LANDFALL IFLAG USA_AGENCY USA_ATCF_ID USA_LAT USA_LON USA_RECORD USA_STATUS USA_WIND USA_PRES USA_SSHS USA_R34_NE USA_R34_SE USA_R34_SW USA_R34_NW USA_R50_NE USA_R50_SE USA_R50_SW USA_R50_NW USA_R64_NE USA_R64_SE USA_R64_SW USA_R64_NW USA_POCI USA_ROCI USA_RMW USA_EYE TOKYO_LAT TOKYO_LON TOKYO_GRADE TOKYO_WIND TOKYO_PRES TOKYO_R50_DIR TOKYO_R50_LONG TOKYO_R50_SHORT TOKYO_R30_DIR TOKYO_R30_LONG TOKYO_R30_SHORT TOKYO_LAND CMA_LAT CMA_LON CMA_CAT CMA_WIND CMA_PRES HKO_LAT HKO_LON HKO_CAT HKO_WIND HKO_PRES NEWDELHI_LAT NEWDELHI_LON NEWDELHI_GRADE NEWDELHI_WIND NEWDELHI_PRES NEWDELHI_CI NEWDELHI_DP NEWDELHI_POCI REUNION_LAT REUNION_LON REUNION_TYPE REUNION_WIND REUNION_PRES REUNION_TNUM REUNION_CI REUNION_RMW REUNION_R34_NE REUNION_R34_SE REUNION_R34_SW REUNION_R34_NW REUNION_R50_NE REUNION_R50_SE REUNION_R50_SW REUNION_R50_NW REUNION_R64_NE REUNION_R64_SE REUNION_R64_SW REUNION_R64_NW BOM_LAT BOM_LON BOM_TYPE BOM_WIND BOM_PRES BOM_TNUM BOM_CI BOM_RMW BOM_R34_NE BOM_R34_SE BOM_R34_SW BOM_R34_NW BOM_R50_NE BOM_R50_SE BOM_R50_SW BOM_R50_NW BOM_R64_NE BOM_R64_SE BOM_R64_SW BOM_R64_NW BOM_ROCI BOM_POCI BOM_EYE BOM_POS_METHOD BOM_PRES_METHOD NADI_LAT NADI_LON NADI_CAT NADI_WIND NADI_PRES WELLINGTON_LAT WELLINGTON_LON WELLINGTON_WIND WELLINGTON_PRES DS824_LAT DS824_LON DS824_STAGE DS824_WIND DS824_PRES TD9636_LAT TD9636_LON TD9636_STAGE TD9636_WIND TD9636_PRES TD9635_LAT TD9635_LON TD9635_WIND TD9635_PRES TD9635_ROCI NEUMANN_LAT NEUMANN_LON NEUMANN_CLASS NEUMANN_WIND NEUMANN_PRES MLC_LAT MLC_LON MLC_CLASS MLC_WIND MLC_PRES USA_GUST BOM_GUST BOM_GUST_PER REUNION_GUST REUNION_GUST_PER USA_SEAHGT USA_SEARAD_NE USA_SEARAD_SE USA_SEARAD_SW USA_SEARAD_NW STORM_SPEED STORM_DIR
1980364S22036 1981 113 SI MM EDWIG 1980-12-28 12:00:00 TS -22.0000 36.0000 reunion main 56 56 O____O___OO_O_ jtwc_sh SH071981 -22.0000 36.0000 -1 -22.0000 36.0000 2 9.90000 -22.0000 36.0000 TC 25 -22.0000 36.0000 1 -22.0000 36.0000 TC 30 6 64
1980364S22036 1981 113 SI MM EDWIG 1980-12-28 15:00:00 TS -21.8610 36.3144 main 88 88 P____P___PP_P_ SH071981 -22.0050 36.2375 -1 -21.2828 36.3915 2 -22.0050 36.2375 TC 25 -22.0045 36.3156 1 -22.0078 36.3899 TC 30 6 70
1980364S22036 1981 113 SI MM EDWIG 1980-12-28 18:00:00 TS -21.8014 36.6030 reunion main 121 121 O____O___OP_O_ jtwc_sh SH071981 -22.0000 36.5000 -1 -21.0000 36.7000 99 9.90000 -22.0000 36.5000 TC 25 -22.0069 36.6150 1 -22.0000 36.7000 TC 30 5 91
1980364S22036 1981 113 SI MM EDWIG 1980-12-28 21:00:00 TS -21.8711 36.8533 main 148 148 P____P___PP_P_ SH071981 -21.9850 36.8001 -1 -21.4022 36.8919 99 -21.9850 36.8001 TC 25 -22.0059 36.8819 1 -21.9772 36.8927 TC 30 5 113
1980364S22036 1981 113 SI MM EDWIG 1980-12-29 00:00:00 TS -22.0000 37.1000 reunion main 166 166 O____O___OO_O_ jtwc_sh SH071981 -22.0000 37.1000 -1 -22.0000 37.1000 99 9.90000 -22.0000 37.1000 TC 25 -22.0000 37.1000 1 -22.0000 37.1000 TC 30 6 114
1980364S22036 1981 113 SI MM EDWIG 1980-12-29 03:00:00 TS -22.0936 37.3969 main 195 195 P____P___PP_P_ SH071981 -22.0774 37.3500 -1 -22.1953 37.5077 99 -22.0774 37.3500 TC 25 -21.9975 37.2693 1 -22.1203 37.5073 TC 32 6 111
1980364S22036 1981 113 SI MM EDWIG 1980-12-29 06:00:00 TS -22.2087 37.6909 reunion main 226 226 O____O___OP_O_ jtwc_sh SH071981 -22.2000 37.6000 -1 -22.3000 37.9000 99 9.90000 -22.2000 37.6000 TC 25 -22.0437 37.4545 1 -22.3000 37.9000 TC 35 5 117
1980364S22036 1981 113 SI MM EDWIG 1980-12-29 09:00:00 TS -22.3241 37.8804 main 245 242 P____P___PP_P_ SH071981 -22.2668 37.8189 -1 -22.4469 38.0135 99 -22.2668 37.8189 TC 25 -22.1932 37.7371 1 -22.4469 38.0135 TC 35 6 128
1980364S22036 1981 113 SI MM EDWIG 1980-12-29 12:00:00 TS -22.5800 38.2000 reunion main 268 268 O____O___OO_O_ jtwc_sh SH071981 -22.5000 38.2000 -1 -22.7000 38.2000 3 9.90000 -22.5000 38.2000 TC 25 -22.5000 38.2000 1 -22.7000 38.2000 TC 35 12 131
1980364S22036 1981 113 SI MM EDWIG 1980-12-29 15:00:00 TS -23.1127 38.8604 main 338 338 P____P___PP_P_ SH071981 -23.0672 38.8800 -1 -23.1555 38.7818 3 -23.0672 38.8800 TC 25 -23.1180 38.9785 1 -23.1555 38.7818 TC 35 18 131
1980364S22036 1981 113 SI MM EDWIG 1980-12-29 18:00:00 TS -23.7741 39.7086 reunion main 393 324 O____O___OP_O_ jtwc_sh SH071981 -23.8000 39.8000 -1 -23.7000 39.5000 99 9.90000 -23.8000 39.8000 TC 25 -23.8704 39.9430 1 -23.7000 39.5000 TC 35 21 130
1980364S22036 1981 113 SI MM EDWIG 1980-12-29 21:00:00 TS -24.4503 40.5728 main 317 246 P____P___PP_P_ SH071981 -24.5911 40.9048 -1 -24.2285 40.0333 99 -24.5911 40.9048 TC 25 -24.6120 40.9876 1 -24.2285 40.0333 TC 35 20 127
1980364S22036 1981 113 SI MM EDWIG 1980-12-30 00:00:00 TS -25.0000 41.4800 reunion main 236 165 O____O___OO_O_ jtwc_sh SH071981 -25.2000 42.0000 -1 -24.7000 40.7000 99 9.90000 -25.2000 42.0000 TC 25 -25.2000 42.0000 1 -24.7000 40.7000 TC 35 18 116
1980364S22036 1981 113 SI MM EDWIG 1980-12-30 03:00:00 TS -25.2371 42.3712 main 156 87 P____P___PP_P_ SH071981 -25.3386 42.8050 -1 -25.0606 41.7248 99 -25.3386 42.8050 TC 25 -25.3870 42.7965 1 -25.0606 41.7248 TC 35 16 101
1980364S22036 1981 113 SI MM EDWIG 1980-12-30 06:00:00 TS -25.3240 43.2670 reunion main 77 32 O____O___OP_O_ jtwc_sh SH071981 -25.3000 43.5000 -1 -25.3000 42.9000 99 9.90000 -25.3000 43.5000 TC 25 -25.4201 43.5350 1 -25.3000 42.9000 TC 35 16 96
1980364S22036 1981 113 SI MM EDWIG 1980-12-30 09:00:00 TS -25.3944 44.1578 main 22 0 P____P___PP_P_ SH071981 -25.3544 44.2358 -1 -25.4223 44.0310 99 -25.3544 44.2358 TC 25 -25.4184 44.2553 1 -25.4223 44.0310 TC 35 16 96
1980364S22036 1981 113 SI MM EDWIG 1980-12-30 12:00:00 TS -25.5000 45.0400 reunion main 0 0 O____O___OO_O_ jtwc_sh SH071981 -25.5000 45.0000 -1 -25.5000 45.1000 3 9.90000 -25.5000 45.0000 TC 25 -25.5000 45.0000 1 -25.5000 45.1000 TC 35 17 101
1980364S22036 1981 113 SI MM EDWIG 1980-12-30 15:00:00 TS -25.7145 45.9517 main 39 39 P____P___PP_P_ SH071981 -25.7896 45.8278 -1 -25.5972 46.0831 3 -25.7896 45.8278 TC 25 -25.7988 45.9366 1 -25.5972 46.0831 TC 35 17 109
1980364S22036 1981 113 SI MM EDWIG 1980-12-30 18:00:00 TS -26.0394 46.8189 reunion main 89 89 O____O___OP_O_ jtwc_sh SH071981 -26.2000 46.7000 -1 -25.8000 46.9000 99 9.90000 -26.2000 46.7000 TC 25 -26.1969 46.8943 1 -25.8000 46.9000 TC 35 17 116
1980364S22036 1981 113 SI MM EDWIG 1980-12-30 21:00:00 TS -26.4693 47.6447 main 165 165 P____P___PP_P_ SH071981 -26.6636 47.7038 -1 -26.1742 47.5178 99 -26.6636 47.7038 TC 25 -26.6710 47.7804 1 -26.1742 47.5178 TC 35 16 126
1980364S22036 1981 113 SI MM EDWIG 1980-12-31 00:00:00 TS -27.0000 48.3000 reunion main 248 248 O____O___OO_O_ jtwc_sh SH071981 -27.2000 48.5000 -1 -26.7000 48.0000 99 9.90000 -27.2000 48.5000 TC 25 -27.2000 48.5000 1 -26.7000 48.0000 TC 35 14 142
1980364S22036 1981 113 SI MM EDWIG 1980-12-31 03:00:00 TS -27.5801 48.6347 main 321 321 P____P___PP_P_ SH071981 -27.7838 48.7347 -1 -27.2898 48.4731 99 -27.7838 48.7347 TC 25 -27.7534 48.7578 1 -27.2898 48.4731 TC 35 13 158
1980364S22036 1981 113 SI MM EDWIG 1980-12-31 06:00:00 TS -28.2314 48.8533 reunion main 394 394 O____O___OP_O_ jtwc_sh SH071981 -28.4000 48.8000 -1 -28.0000 48.9000 99 9.90000 -28.4000 48.8000 TC 25 -28.3570 48.8666 1 -28.0000 48.9000 TC 35 14 164
1980364S22036 1981 113 SI MM EDWIG 1980-12-31 09:00:00 TS -28.9380 49.0821 main 471 471 P____P___PP_P_ SH071981 -29.0052 48.9725 -1 -28.8485 49.2122 99 -29.0052 48.9725 TC 25 -28.9824 49.0409 1 -28.8485 49.2122 TC 35 16 156
1980364S22036 1981 113 SI MM EDWIG 1980-12-31 12:00:00 TS -29.6400 49.5800 reunion main 563 563 O____O___OO_O_ jtwc_sh SH071981 -29.6000 49.5000 -1 -29.7000 49.7000 3 9.90000 -29.6000 49.5000 TC 25 -29.6000 49.5000 1 -29.7000 49.7000 TC 35 19 135
1980364S22036 1981 113 SI MM EDWIG 1980-12-31 15:00:00 TS -30.2823 50.6374 main 679 679 P____P___PP_P_ SH071981 -30.1668 50.6917 -1 -30.4252 50.6215 3 -30.1668 50.6917 TC 25 -30.2277 50.5606 1 -30.4252 50.6215 TC 35 24 120
1980364S22036 1981 113 SI MM EDWIG 1980-12-31 18:00:00 TS -30.8438 51.9869 reunion main 803 803 O____O___OP_O_ jtwc_sh SH071981 -30.7000 52.2000 -1 -31.0000 51.8000 99 9.90000 -30.7000 52.2000 TC 25 -30.8192 51.9344 1 -31.0000 51.8000 TC 35 25 114
1980364S22036 1981 113 SI MM EDWIG 1980-12-31 21:00:00 TS -31.3351 53.3358 main 926 926 P____P___PP_P_ SH071981 -31.2444 53.6147 -1 -31.4311 52.9909 99 -31.2444 53.6147 TC 25 -31.3245 53.4677 1 -31.4311 52.9909 TC 35 25 110
1980364S22036 1981 113 SI MM EDWIG 1981-01-01 00:00:00 TS -31.7000 54.7200 reunion main 1052 1052 O____O___OO_O_ jtwc_sh SH071981 -31.7000 55.0000 -1 -31.7000 54.3000 99 9.90000 -31.7000 55.0000 TC 25 -31.7000 55.0000 1 -31.7000 54.3000 TC 35 24 104
1980364S22036 1981 113 SI MM EDWIG 1981-01-01 03:00:00 TS -31.9374 56.0808 main 1167 1167 P____P___PP_P_ SH071981 -32.0380 56.2728 -1 -31.8446 55.7290 99 -32.0380 56.2728 TC 25 -31.9220 56.4004 1 -31.8446 55.7290 TC 35 23 99
1980364S22036 1981 113 SI MM EDWIG 1981-01-01 06:00:00 TS -32.0440 57.4146 reunion main 1197 1197 O____O___OP_O_ jtwc_sh SH071981 -32.2000 57.5000 -1 -31.9000 57.2000 99 9.90000 -32.2000 57.5000 TC 25 -32.0198 57.6732 1 -31.9000 57.2000 TC 35 22 93
1980364S22036 1981 113 SI MM EDWIG 1981-01-01 09:00:00 TS -32.0507 58.7170 main 1233 1225 P____P___PP_P_ SH071981 -32.1604 58.7440 -1 -31.9498 58.6190 99 -32.1604 58.7440 TC 25 -32.0331 58.8589 1 -31.9498 58.6190 TC 35 22 89
1980364S22036 1981 113 SI MM EDWIG 1981-01-01 12:00:00 TS -32.0000 60.0000 reunion main 1261 O____O___OO_O_ jtwc_sh SH071981 -32.0000 60.0000 -1 -32.0000 60.0000 3 9.90000 -32.0000 60.0000 TC 25 -32.0000 60.0000 1 -32.0000 60.0000 TC 35 22 87

About IBTrACS Database

This database is a web-friendly format of International Best Track Archive for Climate Stewardship (IBTrACS), a global best track data archive curated by NOAA dating back to 1842.

Updated: 2021-10-19